Time;durP1;ratioP1;P1;durP2;ratioP2;P2;SDS_P1;SDS_P2;PMS_P1;PMS_P2;Temp;Humidity;BMP_temperature;BMP_pressure;BME280_temperature;BME280_humidity;BME280_pressure;Samples;Min_cycle;Max_cycle;Signal;HPM_P1;HPM_P2
2022/07/01 00:00:48;;;;;;;;;6.80;6.00;;;;;;;;5038251;28;8763;-77
2022/07/01 00:03:15;;;;;;;;;5.40;5.00;;;;;;;;5038155;28;8767;-77
2022/07/01 00:05:42;;;;;;;;;9.60;6.60;;;;;;;;5037907;28;8801;-77
2022/07/01 00:08:08;;;;;;;;;7.40;6.00;;;;;;;;5038142;28;8845;-77
2022/07/01 00:10:37;;;;;;;;;6.40;6.40;;;;;;;;5037402;28;8819;-77
2022/07/01 00:13:06;;;;;;;;;7.60;7.60;;;;;;;;5038490;28;8793;-77
2022/07/01 00:15:33;;;;;;;;;9.60;9.00;;;;;;;;5037919;28;8786;-77
2022/07/01 00:17:59;;;;;;;;;6.40;5.40;;;;;;;;5037702;28;8758;-77
2022/07/01 00:20:26;;;;;;;;;12.60;10.80;;;;;;;;5037695;28;8771;-77
2022/07/01 00:22:53;;;;;;;;;10.20;10.20;;;;;;;;5037588;28;8763;-81
2022/07/01 00:25:20;;;;;;;;;9.80;8.80;;;;;;;;5037792;28;8779;-82
2022/07/01 00:27:46;;;;;;;;;11.80;9.60;;;;;;;;5021114;28;8873;-77
2022/07/01 00:30:14;;;;;;;;;11.40;11.40;;;;;;;;5033916;28;8895;-77
2022/07/01 00:32:41;;;;;;;;;9.60;7.40;;;;;;;;5033730;28;8764;-81
2022/07/01 00:35:09;;;;;;;;;5.80;5.80;;;;;;;;5017661;28;8788;-77
2022/07/01 00:37:35;;;;;;;;;12.60;8.80;;;;;;;;5033272;28;8798;-77
2022/07/01 00:40:02;;;;;;;;;8.20;6.60;;;;;;;;5034683;28;8870;-78
2022/07/01 00:42:29;;;;;;;;;7.00;6.00;;;;;;;;5017314;28;8776;-82
2022/07/01 00:44:55;;;;;;;;;6.00;6.00;;;;;;;;5033611;28;8870;-77
2022/07/01 00:47:22;;;;;;;;;10.80;10.00;;;;;;;;5033546;28;8845;-77
2022/07/01 00:49:49;;;;;;;;;8.00;7.40;;;;;;;;5033986;28;8765;-77
2022/07/01 00:52:15;;;;;;;;;7.00;7.00;;;;;;;;5033903;28;8780;-82
2022/07/01 00:54:42;;;;;;;;;7.80;7.80;;;;;;;;5017295;28;8764;-77
2022/07/01 00:57:12;;;;;;;;;7.80;7.20;;;;;;;;5033668;28;8849;-77
2022/07/01 00:59:39;;;;;;;;;11.20;8.80;;;;;;;;5032822;28;8804;-78
2022/07/01 01:02:06;;;;;;;;;7.40;7.40;;;;;;;;5033818;28;8814;-81
2022/07/01 01:04:32;;;;;;;;;7.20;7.20;;;;;;;;5033735;28;8753;-77
2022/07/01 01:06:59;;;;;;;;;7.60;7.60;;;;;;;;5035567;28;8795;-77
2022/07/01 01:09:26;;;;;;;;;8.00;7.60;;;;;;;;5032857;28;8791;-81
2022/07/01 01:11:53;;;;;;;;;8.80;8.80;;;;;;;;5017173;28;8780;-77
2022/07/01 01:14:20;;;;;;;;;7.20;6.40;;;;;;;;5033076;28;8804;-82
2022/07/01 01:16:46;;;;;;;;;10.00;8.40;;;;;;;;5033472;28;8764;-82
2022/07/01 01:19:13;;;;;;;;;11.60;7.40;;;;;;;;5034081;28;9202;-77
2022/07/01 01:21:40;;;;;;;;;10.00;7.40;;;;;;;;5016856;28;8768;-77
2022/07/01 01:24:07;;;;;;;;;7.00;7.00;;;;;;;;5033419;28;8768;-77
2022/07/01 01:26:33;;;;;;;;;9.00;7.20;;;;;;;;5034182;28;8815;-77
2022/07/01 01:29:00;;;;;;;;;5.60;3.80;;;;;;;;5034484;28;8778;-78
2022/07/01 01:31:30;;;;;;;;;4.60;4.60;;;;;;;;5036379;28;8845;-78
2022/07/01 01:33:57;;;;;;;;;6.60;6.00;;;;;;;;5036866;28;8795;-81
2022/07/01 01:36:23;;;;;;;;;5.60;5.40;;;;;;;;5019882;28;8763;-77
2022/07/01 01:38:50;;;;;;;;;5.60;5.60;;;;;;;;5036542;28;8803;-82
2022/07/01 01:41:17;;;;;;;;;6.40;4.00;;;;;;;;5036398;28;8862;-78
2022/07/01 01:43:43;;;;;;;;;8.40;5.00;;;;;;;;5054208;28;8752;-82
2022/07/01 01:46:10;;;;;;;;;6.20;4.40;;;;;;;;5037345;28;8789;-77
2022/07/01 01:48:37;;;;;;;;;5.80;5.20;;;;;;;;5016366;28;8911;-79
2022/07/01 01:51:03;;;;;;;;;9.00;7.40;;;;;;;;5000246;28;8850;-81
2022/07/01 01:53:30;;;;;;;;;5.80;5.80;;;;;;;;5016440;28;8859;-77
2022/07/01 01:55:57;;;;;;;;;6.20;6.20;;;;;;;;5016452;28;8792;-76
2022/07/01 01:58:23;;;;;;;;;10.00;6.60;;;;;;;;5017234;28;8765;-76
2022/07/01 02:00:50;;;;;;;;;9.00;6.00;;;;;;;;5033928;28;9297;-81
2022/07/01 02:03:17;;;;;;;;;7.20;6.60;;;;;;;;5032074;28;8782;-76
2022/07/01 02:05:43;;;;;;;;;8.00;7.80;;;;;;;;5019805;28;9028;-76
2022/07/01 02:08:10;;;;;;;;;7.20;7.00;;;;;;;;5036429;28;8775;-76
2022/07/01 02:10:36;;;;;;;;;9.00;8.00;;;;;;;;5036091;28;8810;-82
2022/07/01 02:13:03;;;;;;;;;7.80;6.40;;;;;;;;5022633;28;8770;-77
2022/07/01 02:15:30;;;;;;;;;9.80;8.00;;;;;;;;5039931;28;8775;-77
2022/07/01 02:17:57;;;;;;;;;8.40;8.20;;;;;;;;5039898;28;8797;-82
2022/07/01 02:20:23;;;;;;;;;10.60;7.80;;;;;;;;5039849;28;8829;-81
2022/07/01 02:22:51;;;;;;;;;11.20;9.40;;;;;;;;5023476;28;8853;-81
2022/07/01 02:25:18;;;;;;;;;7.00;7.00;;;;;;;;5040632;28;8762;-77
2022/07/01 02:27:45;;;;;;;;;11.60;10.00;;;;;;;;5039936;28;8775;-81
2022/07/01 02:30:12;;;;;;;;;9.40;6.20;;;;;;;;5019810;28;8847;-77
2022/07/01 02:32:39;;;;;;;;;10.40;9.00;;;;;;;;5036870;28;8866;-77
2022/07/01 02:35:06;;;;;;;;;10.80;10.20;;;;;;;;5036056;28;8822;-76
2022/07/01 02:37:33;;;;;;;;;10.60;9.60;;;;;;;;5037245;28;9487;-77
2022/07/01 02:40:00;;;;;;;;;10.40;9.20;;;;;;;;5036284;28;8795;-77
2022/07/01 02:42:27;;;;;;;;;10.00;10.00;;;;;;;;5036086;28;8780;-81
2022/07/01 02:44:54;;;;;;;;;10.80;9.00;;;;;;;;5036013;28;8804;-77
2022/07/01 02:47:21;;;;;;;;;11.20;9.00;;;;;;;;5035762;28;8791;-82
2022/07/01 02:49:48;;;;;;;;;12.80;10.20;;;;;;;;5035675;28;8776;-82
2022/07/01 02:52:18;;;;;;;;;10.00;9.40;;;;;;;;5020182;28;8784;-82
2022/07/01 02:54:44;;;;;;;;;12.80;11.20;;;;;;;;5035626;28;8783;-83
2022/07/01 02:57:11;;;;;;;;;12.00;9.80;;;;;;;;5035899;28;8764;-77
2022/07/01 02:59:38;;;;;;;;;11.40;10.00;;;;;;;;5035369;28;9438;-77
2022/07/01 03:02:04;;;;;;;;;8.40;8.40;;;;;;;;5036957;28;8909;-77
2022/07/01 03:04:31;;;;;;;;;7.20;7.20;;;;;;;;5035628;28;8752;-77
2022/07/01 03:06:58;;;;;;;;;8.20;7.00;;;;;;;;5020003;28;8779;-77
2022/07/01 03:09:24;;;;;;;;;6.00;6.00;;;;;;;;5035317;28;8782;-82
2022/07/01 03:11:51;;;;;;;;;7.40;7.40;;;;;;;;5035661;28;8749;-77
2022/07/01 03:14:18;;;;;;;;;7.20;6.20;;;;;;;;5036643;28;8906;-77
2022/07/01 03:16:47;;;;;;;;;6.80;6.20;;;;;;;;5036278;28;8910;-77
2022/07/01 03:19:14;;;;;;;;;6.00;5.00;;;;;;;;5036242;28;8796;-76
2022/07/01 03:21:40;;;;;;;;;7.80;7.80;;;;;;;;5035257;28;8780;-81
2022/07/01 03:24:07;;;;;;;;;7.80;7.00;;;;;;;;5018610;28;8753;-77
2022/07/01 03:26:34;;;;;;;;;8.00;7.00;;;;;;;;5018758;28;8918;-76
2022/07/01 03:29:00;;;;;;;;;7.60;7.60;;;;;;;;5020189;28;9642;-76
2022/07/01 03:31:27;;;;;;;;;9.40;7.00;;;;;;;;5038352;28;9509;-76
2022/07/01 03:33:54;;;;;;;;;7.80;7.80;;;;;;;;5038843;28;8805;-82
2022/07/01 03:36:20;;;;;;;;;7.40;7.40;;;;;;;;5021476;28;9454;-76
2022/07/01 03:38:47;;;;;;;;;7.60;7.40;;;;;;;;5038188;28;8759;-81
2022/07/01 03:41:14;;;;;;;;;7.80;7.80;;;;;;;;5037988;28;8798;-76
2022/07/01 03:43:40;;;;;;;;;7.40;7.40;;;;;;;;5038321;28;8751;-76
2022/07/01 03:46:07;;;;;;;;;7.00;6.60;;;;;;;;5039237;28;8890;-80
2022/07/01 03:48:34;;;;;;;;;10.40;9.60;;;;;;;;5037954;28;8787;-81
2022/07/01 03:51:01;;;;;;;;;8.20;5.40;;;;;;;;5038277;28;8807;-76
2022/07/01 03:56:12;;;;;;;;;8.40;7.80;;;;;;;;5055635;28;8751;-76
2022/07/01 03:58:39;;;;;;;;;10.40;9.20;;;;;;;;5038076;28;8797;-76
2022/07/01 04:01:05;;;;;;;;;5.40;2.20;;;;;;;;5038768;28;8790;-76
2022/07/01 04:03:32;;;;;;;;;8.00;6.00;;;;;;;;5055223;28;8781;-76
2022/07/01 04:05:59;;;;;;;;;9.40;7.20;;;;;;;;5055619;28;8778;-76
2022/07/01 04:08:25;;;;;;;;;9.80;9.80;;;;;;;;5037867;28;8778;-81
2022/07/01 04:10:53;;;;;;;;;11.00;8.60;;;;;;;;5038024;28;8877;-76
2022/07/01 04:13:20;;;;;;;;;3.00;3.00;;;;;;;;5038643;28;8751;-81
2022/07/01 04:15:47;;;;;;;;;13.80;11.60;;;;;;;;5037843;28;8770;-77
2022/07/01 04:18:13;;;;;;;;;11.40;9.20;;;;;;;;5037724;28;8806;-76
2022/07/01 04:20:40;;;;;;;;;7.80;7.60;;;;;;;;5055028;28;8763;-76
2022/07/01 04:23:07;;;;;;;;;7.20;7.00;;;;;;;;5021384;28;8754;-76
2022/07/01 04:25:33;;;;;;;;;15.80;9.80;;;;;;;;5037185;28;8754;-82
2022/07/01 04:28:02;;;;;;;;;8.20;7.80;;;;;;;;5056085;28;8832;-81
2022/07/01 04:30:28;;;;;;;;;9.60;8.80;;;;;;;;5017365;28;8846;-76
2022/07/01 04:32:55;;;;;;;;;8.40;8.20;;;;;;;;5014480;28;8779;-76
2022/07/01 04:35:22;;;;;;;;;12.80;11.80;;;;;;;;4997203;28;9418;-76
2022/07/01 04:37:48;;;;;;;;;12.40;11.60;;;;;;;;5014139;28;8759;-76
2022/07/01 04:40:15;;;;;;;;;13.40;11.80;;;;;;;;5014929;28;8787;-76
2022/07/01 04:42:41;;;;;;;;;15.00;13.20;;;;;;;;5013930;28;8835;-75
2022/07/01 04:45:10;;;;;;;;;18.20;14.00;;;;;;;;5014180;28;8771;-81
2022/07/01 04:47:36;;;;;;;;;10.40;9.60;;;;;;;;5004444;28;8786;-80
2022/07/01 04:50:03;;;;;;;;;12.60;9.00;;;;;;;;5030539;28;8829;-77
2022/07/01 04:52:30;;;;;;;;;10.60;7.60;;;;;;;;5030371;28;12427;-75
2022/07/01 04:54:56;;;;;;;;;10.20;8.60;;;;;;;;5014934;28;8774;-75
2022/07/01 04:57:23;;;;;;;;;9.60;8.20;;;;;;;;5013646;28;8767;-77
2022/07/01 04:59:50;;;;;;;;;8.00;8.00;;;;;;;;5013975;28;8850;-75
2022/07/01 05:02:16;;;;;;;;;9.40;9.40;;;;;;;;5022248;28;8780;-75
2022/07/01 05:04:43;;;;;;;;;10.80;9.00;;;;;;;;5017237;28;8769;-75
2022/07/01 05:07:27;;;;;;;;;6.20;5.80;;;;;;;;5017682;28;8784;-75
2022/07/01 05:09:55;;;;;;;;;9.20;6.20;;;;;;;;5035226;28;8953;-81
2022/07/01 05:12:22;;;;;;;;;10.40;8.40;;;;;;;;5016799;28;8773;-81
2022/07/01 05:14:49;;;;;;;;;7.00;6.20;;;;;;;;5033478;28;8851;-75
2022/07/01 05:17:15;;;;;;;;;8.20;6.80;;;;;;;;5034628;28;8772;-75
2022/07/01 05:22:27;;;;;;;;;9.40;5.80;;;;;;;;5033884;28;8748;-76
2022/07/01 05:24:53;;;;;;;;;8.80;7.80;;;;;;;;5034035;28;8800;-75
2022/07/01 05:27:20;;;;;;;;;5.60;5.20;;;;;;;;5016485;28;8894;-75
2022/07/01 05:29:47;;;;;;;;;6.40;5.60;;;;;;;;5033039;28;8831;-75
2022/07/01 05:32:14;;;;;;;;;7.60;5.80;;;;;;;;5034466;28;8973;-75
2022/07/01 05:34:42;;;;;;;;;7.00;6.60;;;;;;;;5033300;28;8769;-75
2022/07/01 05:37:08;;;;;;;;;6.00;5.00;;;;;;;;5033843;28;8777;-75
2022/07/01 05:39:35;;;;;;;;;5.60;5.60;;;;;;;;5032799;28;8806;-80
2022/07/01 05:42:02;;;;;;;;;5.60;4.40;;;;;;;;5032940;28;8792;-79
2022/07/01 05:44:28;;;;;;;;;5.20;5.20;;;;;;;;5032691;28;8776;-80
2022/07/01 05:46:55;;;;;;;;;7.20;6.80;;;;;;;;5035254;28;8932;-75
2022/07/01 05:49:22;;;;;;;;;9.00;4.00;;;;;;;;5038793;28;8749;-75
2022/07/01 05:51:49;;;;;;;;;7.00;4.20;;;;;;;;5036977;28;9437;-75
2022/07/01 05:54:15;;;;;;;;;3.40;3.20;;;;;;;;5037058;28;8814;-75
2022/07/01 05:56:42;;;;;;;;;1.40;0.00;;;;;;;;5038054;28;8794;-75
2022/07/01 05:59:09;;;;;;;;;1.80;1.80;;;;;;;;5037047;28;8776;-80
2022/07/01 06:01:35;;;;;;;;;3.00;1.00;;;;;;;;5020406;28;8788;-80
2022/07/01 06:04:02;;;;;;;;;2.00;1.80;;;;;;;;5021028;28;8773;-80
2022/07/01 06:06:29;;;;;;;;;1.00;0.00;;;;;;;;5036660;28;8891;-75
2022/07/01 06:08:56;;;;;;;;;2.80;2.40;;;;;;;;5038029;28;8914;-80
2022/07/01 06:11:22;;;;;;;;;1.40;1.40;;;;;;;;5036570;28;8848;-80
2022/07/01 06:13:49;;;;;;;;;1.00;1.00;;;;;;;;5020559;28;8853;-80
2022/07/01 06:16:16;;;;;;;;;1.00;1.00;;;;;;;;5037512;28;8764;-76
2022/07/01 06:18:42;;;;;;;;;3.80;2.80;;;;;;;;5016750;28;8781;-80
2022/07/01 06:21:09;;;;;;;;;3.80;3.20;;;;;;;;5018040;28;8805;-75
2022/07/01 06:23:37;;;;;;;;;5.20;5.20;;;;;;;;5016525;28;9527;-79
2022/07/01 06:26:04;;;;;;;;;5.00;4.00;;;;;;;;5000833;28;8947;-75
2022/07/01 06:28:31;;;;;;;;;5.40;4.20;;;;;;;;5016767;28;8751;-75
2022/07/01 06:30:58;;;;;;;;;4.00;3.20;;;;;;;;5017025;28;8865;-75
2022/07/01 06:33:25;;;;;;;;;3.60;3.00;;;;;;;;5012754;28;9435;-76
2022/07/01 06:35:52;;;;;;;;;3.20;3.20;;;;;;;;5017860;28;8779;-80
2022/07/01 06:38:18;;;;;;;;;3.80;3.80;;;;;;;;5016308;28;8797;-76
2022/07/01 06:41:26;;;;;;;;;4.20;3.20;;;;;;;;5016621;28;8823;-75
2022/07/01 06:43:31;;;;;;;;;4.00;2.20;;;;;;;;5016200;28;8813;-76
2022/07/01 06:45:58;;;;;;;;;0.80;0.80;;;;;;;;5018329;28;8856;-81
2022/07/01 06:48:25;;;;;;;;;3.40;2.80;;;;;;;;5016044;28;9411;-76
2022/07/01 06:50:51;;;;;;;;;2.00;2.00;;;;;;;;5016194;28;8815;-80
2022/07/01 06:53:18;;;;;;;;;2.00;2.00;;;;;;;;5016039;28;8795;-75
2022/07/01 06:55:44;;;;;;;;;0.00;0.00;;;;;;;;5016211;28;8818;-76
2022/07/01 06:58:11;;;;;;;;;1.60;1.40;;;;;;;;5016173;28;9482;-76
2022/07/01 07:00:38;;;;;;;;;4.00;3.00;;;;;;;;4999420;28;8815;-81
2022/07/01 07:03:04;;;;;;;;;3.80;2.00;;;;;;;;5029637;28;8826;-75
2022/07/01 07:05:31;;;;;;;;;3.60;2.00;;;;;;;;5035551;28;8768;-76
2022/07/01 07:07:58;;;;;;;;;3.80;2.40;;;;;;;;5035771;28;8799;-82
2022/07/01 07:10:25;;;;;;;;;3.40;2.20;;;;;;;;5035505;28;8869;-75
2022/07/01 07:12:51;;;;;;;;;3.20;1.40;;;;;;;;5036392;28;8776;-75
2022/07/01 07:15:19;;;;;;;;;3.00;3.00;;;;;;;;5035361;28;8787;-81
2022/07/01 07:17:46;;;;;;;;;2.00;1.20;;;;;;;;5016070;28;9492;-80
2022/07/01 07:20:12;;;;;;;;;3.20;2.00;;;;;;;;4999575;28;8771;-82
2022/07/01 07:22:39;;;;;;;;;1.00;1.00;;;;;;;;5016905;28;8985;-75
2022/07/01 07:25:06;;;;;;;;;2.40;1.00;;;;;;;;5016413;28;8813;-76
2022/07/01 07:27:32;;;;;;;;;0.80;0.80;;;;;;;;5016209;28;8885;-78
2022/07/01 07:29:59;;;;;;;;;3.00;1.20;;;;;;;;5015288;28;8877;-84
2022/07/01 07:32:26;;;;;;;;;1.00;1.00;;;;;;;;5023685;28;8769;-76
2022/07/01 07:34:52;;;;;;;;;1.20;1.20;;;;;;;;5035453;28;8830;-76
2022/07/01 07:37:19;;;;;;;;;1.60;1.60;;;;;;;;5035799;28;8862;-76
2022/07/01 07:39:45;;;;;;;;;1.60;1.60;;;;;;;;5035110;28;8899;-76
2022/07/01 07:42:13;;;;;;;;;1.00;1.00;;;;;;;;5034859;28;8973;-83
2022/07/01 07:44:39;;;;;;;;;1.00;1.00;;;;;;;;5034623;28;8792;-81
2022/07/01 07:47:06;;;;;;;;;0.00;0.00;;;;;;;;5015235;28;8778;-76
2022/07/01 07:49:33;;;;;;;;;1.00;1.00;;;;;;;;5015912;28;8743;-76
2022/07/01 07:51:59;;;;;;;;;2.00;2.00;;;;;;;;5015792;28;8901;-76
2022/07/01 07:54:26;;;;;;;;;2.00;2.00;;;;;;;;4998232;28;8759;-76
2022/07/01 07:56:53;;;;;;;;;4.60;2.20;;;;;;;;5016016;28;8771;-76
2022/07/01 07:59:19;;;;;;;;;1.80;1.80;;;;;;;;4998501;28;8797;-77
2022/07/01 08:01:46;;;;;;;;;4.00;2.00;;;;;;;;5019081;28;8842;-77
2022/07/01 08:04:13;;;;;;;;;1.80;1.80;;;;;;;;5036638;28;8764;-76
2022/07/01 08:06:40;;;;;;;;;4.60;4.00;;;;;;;;5034373;28;8772;-82
2022/07/01 08:09:06;;;;;;;;;4.60;3.00;;;;;;;;5035285;28;8783;-76
2022/07/01 08:11:33;;;;;;;;;3.80;2.00;;;;;;;;5033489;28;8784;-88
2022/07/01 08:14:00;;;;;;;;;3.60;3.00;;;;;;;;5034235;28;8780;-76
2022/07/01 08:16:26;;;;;;;;;3.80;2.00;;;;;;;;5017906;28;8776;-76
2022/07/01 08:18:53;;;;;;;;;3.20;3.20;;;;;;;;5035224;28;8752;-83
2022/07/01 08:21:20;;;;;;;;;2.40;1.00;;;;;;;;5033920;28;8875;-77
2022/07/01 08:23:46;;;;;;;;;4.00;2.20;;;;;;;;5034246;28;8776;-83
2022/07/01 08:26:14;;;;;;;;;3.00;3.00;;;;;;;;5035570;28;8772;-76
2022/07/01 08:28:41;;;;;;;;;2.00;2.00;;;;;;;;5034070;28;8756;-78
2022/07/01 08:31:08;;;;;;;;;2.40;1.40;;;;;;;;5034663;28;8897;-83
2022/07/01 08:33:34;;;;;;;;;1.00;1.00;;;;;;;;5013984;28;8877;-76
2022/07/01 08:36:01;;;;;;;;;0.60;0.00;;;;;;;;5015489;28;8811;-77
2022/07/01 08:38:28;;;;;;;;;1.00;0.40;;;;;;;;5014166;28;8790;-76
2022/07/01 08:40:54;;;;;;;;;2.00;1.00;;;;;;;;5015667;28;8781;-82
2022/07/01 08:43:21;;;;;;;;;1.40;1.40;;;;;;;;5014624;28;9463;-77
2022/07/01 08:45:48;;;;;;;;;3.20;3.00;;;;;;;;5015073;28;8783;-76
2022/07/01 08:48:14;;;;;;;;;3.00;3.00;;;;;;;;5009211;28;8825;-76
2022/07/01 08:50:41;;;;;;;;;2.00;2.00;;;;;;;;5013935;28;8815;-83
2022/07/01 08:53:08;;;;;;;;;3.40;3.40;;;;;;;;5014183;28;8860;-82
2022/07/01 08:58:22;;;;;;;;;2.40;2.00;;;;;;;;4993877;28;8803;-80
2022/07/01 09:00:49;;;;;;;;;3.00;3.00;;;;;;;;5015071;28;8778;-76
2022/07/01 09:03:16;;;;;;;;;3.40;2.80;;;;;;;;5028825;28;8848;-81
2022/07/01 09:06:01;;;;;;;;;2.40;2.40;;;;;;;;5033526;28;8788;-82
2022/07/01 09:08:28;;;;;;;;;4.20;4.00;;;;;;;;5033333;28;9566;-76
2022/07/01 09:10:55;;;;;;;;;4.00;2.20;;;;;;;;5033598;28;8891;-76
2022/07/01 09:13:21;;;;;;;;;2.00;2.00;;;;;;;;5035083;28;8787;-76
2022/07/01 09:15:48;;;;;;;;;4.60;2.60;;;;;;;;5033435;28;8768;-82
2022/07/01 09:18:17;;;;;;;;;2.00;2.00;;;;;;;;5033433;28;8780;-76
2022/07/01 09:20:45;;;;;;;;;3.60;2.40;;;;;;;;5034449;28;8780;-76
2022/07/01 09:23:15;;;;;;;;;2.20;2.20;;;;;;;;5033516;28;8858;-82
2022/07/01 09:25:48;;;;;;;;;0.80;0.80;;;;;;;;5016867;28;8788;-76
2022/07/01 09:28:15;;;;;;;;;2.20;2.00;;;;;;;;5033592;28;9383;-76
2022/07/01 09:30:42;;;;;;;;;3.00;2.00;;;;;;;;5032941;28;8851;-76
2022/07/01 09:33:12;;;;;;;;;2.00;2.00;;;;;;;;5033268;28;8765;-76
2022/07/01 09:35:39;;;;;;;;;2.00;0.00;;;;;;;;5033202;28;8814;-76
2022/07/01 09:38:07;;;;;;;;;3.00;2.60;;;;;;;;5033303;28;8868;-76
2022/07/01 09:40:51;;;;;;;;;2.40;2.40;;;;;;;;5033026;28;8792;-76
2022/07/01 09:43:19;;;;;;;;;2.00;2.00;;;;;;;;5034854;28;8741;-82
2022/07/01 09:45:50;;;;;;;;;3.40;3.00;;;;;;;;5016673;28;8775;-81
2022/07/01 09:48:16;;;;;;;;;3.00;3.00;;;;;;;;5032806;28;8854;-81
2022/07/01 09:50:43;;;;;;;;;1.40;1.00;;;;;;;;5032840;28;8784;-76
2022/07/01 09:53:10;;;;;;;;;2.20;2.00;;;;;;;;5016889;28;8764;-81
2022/07/01 09:55:37;;;;;;;;;5.20;1.80;;;;;;;;5016613;28;8792;-76
2022/07/01 09:58:03;;;;;;;;;3.00;3.00;;;;;;;;5033898;28;8795;-81
2022/07/01 10:00:31;;;;;;;;;3.00;3.00;;;;;;;;5032799;28;8769;-75
2022/07/01 10:02:58;;;;;;;;;3.00;3.00;;;;;;;;5032805;28;9435;-81
2022/07/01 10:05:25;;;;;;;;;2.60;2.40;;;;;;;;5016508;28;8772;-76
2022/07/01 10:07:58;;;;;;;;;5.00;2.80;;;;;;;;5016822;28;8752;-76
2022/07/01 10:10:45;;;;;;;;;3.80;3.80;;;;;;;;5034409;28;8858;-76
2022/07/01 10:13:16;;;;;;;;;3.60;3.60;;;;;;;;5049993;28;9467;-81
2022/07/01 10:15:44;;;;;;;;;6.20;4.00;;;;;;;;5033985;28;8784;-76
2022/07/01 10:18:21;;;;;;;;;5.40;3.60;;;;;;;;5013084;28;8793;-81
2022/07/01 10:20:48;;;;;;;;;5.40;2.60;;;;;;;;4996512;28;8781;-76
2022/07/01 10:23:15;;;;;;;;;2.00;2.00;;;;;;;;5013943;28;8859;-76
2022/07/01 10:25:41;;;;;;;;;0.20;0.20;;;;;;;;5012621;28;8759;-81
2022/07/01 10:28:19;;;;;;;;;2.00;2.00;;;;;;;;5013744;28;8845;-75
2022/07/01 10:30:51;;;;;;;;;3.00;2.80;;;;;;;;5025246;28;8849;-76
2022/07/01 10:33:38;;;;;;;;;3.40;3.40;;;;;;;;5049754;28;8782;-76
2022/07/01 10:36:12;;;;;;;;;4.20;3.80;;;;;;;;5039738;28;8775;-81
2022/07/01 10:38:57;;;;;;;;;5.80;2.60;;;;;;;;5023147;28;8782;-76
2022/07/01 10:41:24;;;;;;;;;3.80;3.40;;;;;;;;5057284;28;8762;-76
2022/07/01 10:43:51;;;;;;;;;4.00;3.00;;;;;;;;5039382;28;9406;-81
2022/07/01 10:46:36;;;;;;;;;3.00;3.00;;;;;;;;5039882;28;8897;-76
2022/07/01 10:49:03;;;;;;;;;5.40;3.40;;;;;;;;5037848;28;8749;-81
2022/07/01 10:51:48;;;;;;;;;5.00;4.60;;;;;;;;5019365;28;8808;-75
2022/07/01 10:54:43;;;;;;;;;3.20;3.20;;;;;;;;5037242;28;8787;-76
2022/07/01 10:57:19;;;;;;;;;4.00;4.00;;;;;;;;5013735;28;8741;-75
2022/07/01 10:59:52;;;;;;;;;5.20;4.20;;;;;;;;5019341;28;8764;-76
2022/07/01 11:02:23;;;;;;;;;4.00;4.00;;;;;;;;5026440;28;9053;-76
2022/07/01 11:04:53;;;;;;;;;4.00;4.00;;;;;;;;5039195;28;8847;-78
2022/07/01 11:07:20;;;;;;;;;4.00;2.80;;;;;;;;5039781;28;9520;-75
2022/07/01 11:09:47;;;;;;;;;4.60;4.40;;;;;;;;5039286;28;8775;-75
2022/07/01 11:12:16;;;;;;;;;3.80;3.80;;;;;;;;5039278;28;8853;-81
2022/07/01 11:14:43;;;;;;;;;7.40;4.60;;;;;;;;5039208;28;8769;-75
2022/07/01 11:17:10;;;;;;;;;4.40;4.40;;;;;;;;5038820;28;8883;-75
2022/07/01 11:19:36;;;;;;;;;4.80;4.80;;;;;;;;5056460;28;8775;-76
2022/07/01 11:22:05;;;;;;;;;5.40;4.40;;;;;;;;5023102;28;8921;-75
2022/07/01 11:24:31;;;;;;;;;5.20;4.80;;;;;;;;5038876;28;8759;-75
2022/07/01 11:27:01;;;;;;;;;5.00;4.00;;;;;;;;5038895;28;8881;-76
2022/07/01 11:29:28;;;;;;;;;5.80;4.60;;;;;;;;5021543;28;8994;-76
2022/07/01 11:31:55;;;;;;;;;7.20;5.00;;;;;;;;5038728;28;8864;-81
2022/07/01 11:34:22;;;;;;;;;4.60;4.60;;;;;;;;5038800;28;8789;-76
2022/07/01 11:39:35;;;;;;;;;8.60;6.40;;;;;;;;5041159;28;8767;-81
2022/07/01 11:42:06;;;;;;;;;3.40;3.40;;;;;;;;5022167;28;8873;-81
2022/07/01 11:44:33;;;;;;;;;4.20;4.20;;;;;;;;5021555;28;8758;-76
2022/07/01 11:47:00;;;;;;;;;4.80;3.20;;;;;;;;5056280;28;8759;-76
2022/07/01 11:49:27;;;;;;;;;3.00;3.00;;;;;;;;5037874;28;8758;-80
2022/07/01 11:51:57;;;;;;;;;3.00;2.40;;;;;;;;5039188;28;8786;-76
2022/07/01 11:54:23;;;;;;;;;5.00;3.40;;;;;;;;5055777;28;8766;-82
2022/07/01 11:56:50;;;;;;;;;2.00;2.00;;;;;;;;5021747;28;8754;-76
2022/07/01 11:59:17;;;;;;;;;4.80;3.40;;;;;;;;5038397;28;8790;-75
2022/07/01 12:01:49;;;;;;;;;3.00;3.00;;;;;;;;5038261;28;8751;-87
2022/07/01 12:04:16;;;;;;;;;4.20;3.80;;;;;;;;5022405;28;8782;-81
2022/07/01 12:06:43;;;;;;;;;2.80;2.00;;;;;;;;5021337;28;8763;-76
2022/07/01 12:09:16;;;;;;;;;2.00;2.00;;;;;;;;5038173;28;8763;-78
2022/07/01 12:11:50;;;;;;;;;2.00;2.00;;;;;;;;5021539;28;8809;-81
2022/07/01 12:14:35;;;;;;;;;2.40;2.00;;;;;;;;5055742;28;8786;-81
2022/07/01 12:17:03;;;;;;;;;3.00;3.00;;;;;;;;5038097;28;8783;-81
2022/07/01 12:19:30;;;;;;;;;2.80;2.80;;;;;;;;5037933;28;8832;-81
2022/07/01 12:22:00;;;;;;;;;1.80;1.60;;;;;;;;5038645;28;8813;-76
2022/07/01 12:24:27;;;;;;;;;2.60;2.40;;;;;;;;5055162;28;8817;-80
2022/07/01 12:26:54;;;;;;;;;3.40;2.40;;;;;;;;5021269;28;8786;-81
2022/07/01 12:29:22;;;;;;;;;3.40;3.40;;;;;;;;5020899;28;8822;-81
2022/07/01 12:31:57;;;;;;;;;2.40;0.80;;;;;;;;5017603;28;8761;-81
2022/07/01 12:34:24;;;;;;;;;1.80;1.80;;;;;;;;5035612;28;8798;-76
2022/07/01 12:36:51;;;;;;;;;2.00;2.00;;;;;;;;5034111;28;8798;-76
2022/07/01 12:39:18;;;;;;;;;3.40;1.00;;;;;;;;5017423;28;8788;-76
2022/07/01 12:41:49;;;;;;;;;2.60;1.60;;;;;;;;5035246;28;8772;-76
2022/07/01 12:44:26;;;;;;;;;2.80;2.80;;;;;;;;5033735;28;8780;-76
2022/07/01 12:46:53;;;;;;;;;2.20;2.20;;;;;;;;5014307;28;8857;-82
2022/07/01 12:49:26;;;;;;;;;3.80;2.00;;;;;;;;4998460;28;8787;-81
2022/07/01 12:51:53;;;;;;;;;6.00;1.80;;;;;;;;5014458;28;8791;-81
2022/07/01 12:54:49;;;;;;;;;2.40;2.40;;;;;;;;5014727;28;8821;-76
2022/07/01 12:57:15;;;;;;;;;4.20;3.40;;;;;;;;5010229;28;8774;-76
2022/07/01 12:59:42;;;;;;;;;5.00;3.40;;;;;;;;5013954;28;8803;-81
2022/07/01 13:02:09;;;;;;;;;3.00;2.00;;;;;;;;5019712;28;8854;-75
2022/07/01 13:04:36;;;;;;;;;4.00;2.20;;;;;;;;5033605;28;8779;-81
2022/07/01 13:07:03;;;;;;;;;2.00;1.80;;;;;;;;5034395;28;8760;-81
2022/07/01 13:09:29;;;;;;;;;3.60;2.60;;;;;;;;5033232;28;8845;-76
2022/07/01 13:11:56;;;;;;;;;3.00;1.00;;;;;;;;5034605;28;8780;-81
2022/07/01 13:14:23;;;;;;;;;3.60;2.40;;;;;;;;5033235;28;8765;-79
2022/07/01 13:16:50;;;;;;;;;1.80;1.80;;;;;;;;5034287;28;9444;-76
2022/07/01 13:19:16;;;;;;;;;3.20;1.80;;;;;;;;5035266;28;8752;-76
2022/07/01 13:21:43;;;;;;;;;2.40;0.80;;;;;;;;5033355;28;8776;-75
2022/07/01 13:24:10;;;;;;;;;3.00;2.80;;;;;;;;5033401;28;8784;-75
2022/07/01 13:26:36;;;;;;;;;5.20;3.40;;;;;;;;5032954;28;8783;-76
2022/07/01 13:29:03;;;;;;;;;8.40;5.40;;;;;;;;5033022;28;8914;-76
2022/07/01 13:31:29;;;;;;;;;5.60;5.60;;;;;;;;5051306;28;8911;-80
2022/07/01 13:33:56;;;;;;;;;8.00;6.20;;;;;;;;5037475;28;8877;-76
2022/07/01 13:36:23;;;;;;;;;7.60;6.60;;;;;;;;5036081;28;8762;-75
2022/07/01 13:38:49;;;;;;;;;6.40;5.80;;;;;;;;5036579;28;8775;-83
2022/07/01 13:41:16;;;;;;;;;0.00;0.00;;;;;;;;5020343;28;8759;-76
2022/07/01 13:43:43;;;;;;;;;9.60;7.00;;;;;;;;5020140;28;8775;-76
2022/07/01 13:46:10;;;;;;;;;11.40;9.80;;;;;;;;5055053;28;8860;-80
2022/07/01 13:48:36;;;;;;;;;13.60;8.60;;;;;;;;5035944;28;8819;-75
2022/07/01 13:51:03;;;;;;;;;9.40;8.20;;;;;;;;5036274;28;8845;-81
2022/07/01 13:53:30;;;;;;;;;6.20;6.00;;;;;;;;5019809;28;8763;-76
2022/07/01 13:55:56;;;;;;;;;7.80;5.80;;;;;;;;5054364;28;8758;-76
2022/07/01 13:58:23;;;;;;;;;6.60;5.80;;;;;;;;5054696;28;8775;-87
2022/07/01 14:00:49;;;;;;;;;7.80;7.60;;;;;;;;5037008;28;8802;-75
2022/07/01 14:03:16;;;;;;;;;9.20;7.60;;;;;;;;5053752;28;8814;-75
2022/07/01 14:05:43;;;;;;;;;7.20;6.00;;;;;;;;5053904;28;8763;-75
2022/07/01 14:08:09;;;;;;;;;6.80;3.00;;;;;;;;5056599;28;8766;-80
2022/07/01 14:10:37;;;;;;;;;6.40;5.80;;;;;;;;5039831;28;8806;-76
2022/07/01 14:13:04;;;;;;;;;8.20;6.40;;;;;;;;5040773;28;8778;-82
2022/07/01 14:15:31;;;;;;;;;3.60;3.60;;;;;;;;5039770;28;8801;-75
2022/07/01 14:17:58;;;;;;;;;7.00;4.40;;;;;;;;5020139;28;8811;-81
2022/07/01 14:20:25;;;;;;;;;10.00;6.60;;;;;;;;5037732;28;8805;-76
2022/07/01 14:22:53;;;;;;;;;5.00;5.00;;;;;;;;5020669;28;8741;-75
2022/07/01 14:25:20;;;;;;;;;7.20;6.80;;;;;;;;5020886;28;8799;-80
2022/07/01 14:27:47;;;;;;;;;5.00;5.00;;;;;;;;5037767;28;8801;-81
2022/07/01 14:30:13;;;;;;;;;5.60;5.00;;;;;;;;5000102;28;8940;-75
2022/07/01 14:32:40;;;;;;;;;5.80;5.20;;;;;;;;5026252;28;8808;-76
2022/07/01 14:35:07;;;;;;;;;6.00;4.60;;;;;;;;5036434;28;8883;-76
2022/07/01 14:37:34;;;;;;;;;3.80;3.80;;;;;;;;5037388;28;9401;-81
2022/07/01 14:40:01;;;;;;;;;6.40;4.00;;;;;;;;5037071;28;8803;-81
2022/07/01 14:42:27;;;;;;;;;4.80;3.00;;;;;;;;5035942;28;8772;-82
2022/07/01 14:44:54;;;;;;;;;2.80;2.80;;;;;;;;5036181;28;8799;-76
2022/07/01 14:47:22;;;;;;;;;4.20;2.80;;;;;;;;5035848;28;8827;-76
2022/07/01 14:49:50;;;;;;;;;5.20;5.00;;;;;;;;5020070;28;8785;-81
2022/07/01 14:52:20;;;;;;;;;4.00;3.60;;;;;;;;5036800;28;8796;-77
2022/07/01 14:54:47;;;;;;;;;4.00;3.80;;;;;;;;5020042;28;8772;-76
2022/07/01 14:57:13;;;;;;;;;5.20;4.00;;;;;;;;5036132;28;8879;-76
2022/07/01 14:59:40;;;;;;;;;3.60;2.80;;;;;;;;5035955;28;9416;-75
2022/07/01 15:02:06;;;;;;;;;7.80;4.40;;;;;;;;5035960;28;8842;-81
2022/07/01 15:04:33;;;;;;;;;5.00;3.60;;;;;;;;5037090;28;8779;-81
2022/07/01 15:07:00;;;;;;;;;5.60;4.00;;;;;;;;5020256;28;8772;-86
2022/07/01 15:09:27;;;;;;;;;4.20;4.20;;;;;;;;5035676;28;8909;-75